sensor_id;sensor_type;location;lat;lon;timestamp;P1;durP1;ratioP1;P2;durP2;ratioP2
5351;SDS011;2698;51.454;6.736;2023-09-12T00:00:29;32.57;;;21.67;;
5351;SDS011;2698;51.454;6.736;2023-09-12T00:02:57;39.07;;;27.07;;
5351;SDS011;2698;51.454;6.736;2023-09-12T00:05:24;98.13;;;38.93;;
5351;SDS011;2698;51.454;6.736;2023-09-12T00:07:52;62.50;;;33.50;;
5351;SDS011;2698;51.454;6.736;2023-09-12T00:10:20;63.87;;;34.30;;
5351;SDS011;2698;51.454;6.736;2023-09-12T00:12:47;52.53;;;28.93;;
5351;SDS011;2698;51.454;6.736;2023-09-12T00:15:14;61.63;;;30.60;;
5351;SDS011;2698;51.454;6.736;2023-09-12T00:17:41;49.60;;;29.43;;
5351;SDS011;2698;51.454;6.736;2023-09-12T00:20:09;41.10;;;26.20;;
5351;SDS011;2698;51.454;6.736;2023-09-12T00:22:36;40.90;;;24.00;;
5351;SDS011;2698;51.454;6.736;2023-09-12T00:25:05;37.47;;;22.00;;
5351;SDS011;2698;51.454;6.736;2023-09-12T00:27:32;23.70;;;20.40;;
5351;SDS011;2698;51.454;6.736;2023-09-12T00:29:59;59.93;;;25.23;;
5351;SDS011;2698;51.454;6.736;2023-09-12T00:32:26;64.73;;;27.73;;
5351;SDS011;2698;51.454;6.736;2023-09-12T00:34:54;54.80;;;28.00;;
5351;SDS011;2698;51.454;6.736;2023-09-12T00:37:21;57.30;;;31.60;;
5351;SDS011;2698;51.454;6.736;2023-09-12T00:39:48;57.63;;;30.13;;
5351;SDS011;2698;51.454;6.736;2023-09-12T00:42:17;50.87;;;30.20;;
5351;SDS011;2698;51.454;6.736;2023-09-12T00:44:44;42.13;;;26.70;;
5351;SDS011;2698;51.454;6.736;2023-09-12T00:47:11;56.47;;;31.87;;
5351;SDS011;2698;51.454;6.736;2023-09-12T00:49:39;54.27;;;28.47;;
5351;SDS011;2698;51.454;6.736;2023-09-12T00:52:06;59.90;;;33.93;;
5351;SDS011;2698;51.454;6.736;2023-09-12T00:54:34;52.10;;;28.87;;
5351;SDS011;2698;51.454;6.736;2023-09-12T00:57:01;36.33;;;24.87;;
5351;SDS011;2698;51.454;6.736;2023-09-12T00:59:29;44.90;;;25.13;;
5351;SDS011;2698;51.454;6.736;2023-09-12T01:01:57;43.30;;;24.63;;
5351;SDS011;2698;51.454;6.736;2023-09-12T01:04:24;45.10;;;27.97;;
5351;SDS011;2698;51.454;6.736;2023-09-12T01:06:52;49.03;;;27.70;;
5351;SDS011;2698;51.454;6.736;2023-09-12T01:09:19;48.73;;;27.30;;
5351;SDS011;2698;51.454;6.736;2023-09-12T01:11:46;50.97;;;27.03;;
5351;SDS011;2698;51.454;6.736;2023-09-12T01:14:13;56.40;;;26.80;;
5351;SDS011;2698;51.454;6.736;2023-09-12T01:16:42;62.93;;;27.80;;
5351;SDS011;2698;51.454;6.736;2023-09-12T01:19:09;47.00;;;27.33;;
5351;SDS011;2698;51.454;6.736;2023-09-12T01:22:00;50.00;;;27.03;;
5351;SDS011;2698;51.454;6.736;2023-09-12T01:27:22;40.20;;;26.03;;
5351;SDS011;2698;51.454;6.736;2023-09-12T01:29:53;38.67;;;25.00;;
5351;SDS011;2698;51.454;6.736;2023-09-12T01:32:23;38.63;;;22.27;;
5351;SDS011;2698;51.454;6.736;2023-09-12T01:34:50;36.60;;;23.20;;
5351;SDS011;2698;51.454;6.736;2023-09-12T01:37:17;33.97;;;22.20;;
5351;SDS011;2698;51.454;6.736;2023-09-12T01:39:44;33.43;;;21.57;;
5351;SDS011;2698;51.454;6.736;2023-09-12T01:42:13;34.40;;;21.60;;
5351;SDS011;2698;51.454;6.736;2023-09-12T01:44:43;39.73;;;22.07;;
5351;SDS011;2698;51.454;6.736;2023-09-12T01:47:11;37.77;;;21.20;;
5351;SDS011;2698;51.454;6.736;2023-09-12T01:49:39;26.33;;;16.93;;
5351;SDS011;2698;51.454;6.736;2023-09-12T01:52:07;32.40;;;17.67;;
5351;SDS011;2698;51.454;6.736;2023-09-12T01:54:34;26.10;;;18.30;;
5351;SDS011;2698;51.454;6.736;2023-09-12T01:57:02;45.20;;;22.40;;
5351;SDS011;2698;51.454;6.736;2023-09-12T01:59:30;33.53;;;21.83;;
5351;SDS011;2698;51.454;6.736;2023-09-12T02:01:58;38.40;;;22.37;;
5351;SDS011;2698;51.454;6.736;2023-09-12T02:04:25;28.40;;;19.43;;
5351;SDS011;2698;51.454;6.736;2023-09-12T02:06:52;30.50;;;18.90;;
5351;SDS011;2698;51.454;6.736;2023-09-12T02:09:20;22.33;;;19.37;;
5351;SDS011;2698;51.454;6.736;2023-09-12T02:11:48;24.20;;;18.63;;
5351;SDS011;2698;51.454;6.736;2023-09-12T02:14:15;29.07;;;19.47;;
5351;SDS011;2698;51.454;6.736;2023-09-12T02:16:43;35.53;;;21.67;;
5351;SDS011;2698;51.454;6.736;2023-09-12T02:19:12;27.60;;;20.23;;
5351;SDS011;2698;51.454;6.736;2023-09-12T02:21:39;34.30;;;21.37;;
5351;SDS011;2698;51.454;6.736;2023-09-12T02:24:07;25.53;;;18.67;;
5351;SDS011;2698;51.454;6.736;2023-09-12T02:26:34;31.57;;;19.13;;
5351;SDS011;2698;51.454;6.736;2023-09-12T02:29:02;25.60;;;18.60;;
5351;SDS011;2698;51.454;6.736;2023-09-12T02:31:31;29.17;;;22.07;;
5351;SDS011;2698;51.454;6.736;2023-09-12T02:33:58;27.33;;;19.87;;
5351;SDS011;2698;51.454;6.736;2023-09-12T02:36:26;32.67;;;21.87;;
5351;SDS011;2698;51.454;6.736;2023-09-12T02:38:54;27.40;;;20.87;;
5351;SDS011;2698;51.454;6.736;2023-09-12T02:41:22;24.50;;;19.23;;
5351;SDS011;2698;51.454;6.736;2023-09-12T02:43:49;33.13;;;24.20;;
5351;SDS011;2698;51.454;6.736;2023-09-12T02:46:16;30.60;;;22.03;;
5351;SDS011;2698;51.454;6.736;2023-09-12T02:48:43;35.63;;;21.03;;
5351;SDS011;2698;51.454;6.736;2023-09-12T02:51:11;38.60;;;22.67;;
5351;SDS011;2698;51.454;6.736;2023-09-12T02:53:40;48.53;;;24.40;;
5351;SDS011;2698;51.454;6.736;2023-09-12T02:56:07;57.10;;;23.70;;
5351;SDS011;2698;51.454;6.736;2023-09-12T02:58:34;47.13;;;25.30;;
5351;SDS011;2698;51.454;6.736;2023-09-12T03:01:01;46.33;;;24.50;;
5351;SDS011;2698;51.454;6.736;2023-09-12T03:03:31;36.33;;;24.50;;
5351;SDS011;2698;51.454;6.736;2023-09-12T03:05:59;32.63;;;23.70;;
5351;SDS011;2698;51.454;6.736;2023-09-12T03:08:27;32.60;;;24.70;;
5351;SDS011;2698;51.454;6.736;2023-09-12T03:10:56;43.20;;;25.70;;
5351;SDS011;2698;51.454;6.736;2023-09-12T03:13:24;43.33;;;26.37;;
5351;SDS011;2698;51.454;6.736;2023-09-12T03:15:51;46.23;;;27.07;;
5351;SDS011;2698;51.454;6.736;2023-09-12T03:18:18;39.13;;;27.67;;
5351;SDS011;2698;51.454;6.736;2023-09-12T03:20:45;49.63;;;30.60;;
5351;SDS011;2698;51.454;6.736;2023-09-12T03:23:12;47.10;;;33.90;;
5351;SDS011;2698;51.454;6.736;2023-09-12T03:25:40;46.37;;;33.30;;
5351;SDS011;2698;51.454;6.736;2023-09-12T03:28:08;51.00;;;33.03;;
5351;SDS011;2698;51.454;6.736;2023-09-12T03:30:36;48.43;;;31.87;;
5351;SDS011;2698;51.454;6.736;2023-09-12T03:33:03;52.73;;;34.43;;
5351;SDS011;2698;51.454;6.736;2023-09-12T03:35:31;49.63;;;32.17;;
5351;SDS011;2698;51.454;6.736;2023-09-12T03:37:58;52.47;;;34.50;;
5351;SDS011;2698;51.454;6.736;2023-09-12T03:40:27;54.43;;;34.10;;
5351;SDS011;2698;51.454;6.736;2023-09-12T03:42:55;54.13;;;36.70;;
5351;SDS011;2698;51.454;6.736;2023-09-12T03:45:23;53.00;;;37.60;;
5351;SDS011;2698;51.454;6.736;2023-09-12T03:47:51;60.40;;;36.50;;
5351;SDS011;2698;51.454;6.736;2023-09-12T03:50:18;56.40;;;36.70;;
5351;SDS011;2698;51.454;6.736;2023-09-12T03:52:45;58.77;;;39.40;;
5351;SDS011;2698;51.454;6.736;2023-09-12T03:55:12;60.43;;;41.87;;
5351;SDS011;2698;51.454;6.736;2023-09-12T03:57:39;73.10;;;44.70;;
5351;SDS011;2698;51.454;6.736;2023-09-12T04:00:07;64.87;;;43.80;;
5351;SDS011;2698;51.454;6.736;2023-09-12T04:02:36;73.10;;;44.70;;
5351;SDS011;2698;51.454;6.736;2023-09-12T04:05:03;75.83;;;45.60;;
5351;SDS011;2698;51.454;6.736;2023-09-12T04:07:30;74.83;;;45.63;;
5351;SDS011;2698;51.454;6.736;2023-09-12T04:09:57;73.77;;;45.07;;
5351;SDS011;2698;51.454;6.736;2023-09-12T04:12:25;70.07;;;46.80;;
5351;SDS011;2698;51.454;6.736;2023-09-12T04:14:52;73.53;;;46.27;;
5351;SDS011;2698;51.454;6.736;2023-09-12T04:17:20;77.67;;;45.63;;
5351;SDS011;2698;51.454;6.736;2023-09-12T04:19:48;70.37;;;47.70;;
5351;SDS011;2698;51.454;6.736;2023-09-12T04:22:15;77.47;;;46.20;;
5351;SDS011;2698;51.454;6.736;2023-09-12T04:24:42;77.73;;;47.73;;
5351;SDS011;2698;51.454;6.736;2023-09-12T04:27:09;84.00;;;48.33;;
5351;SDS011;2698;51.454;6.736;2023-09-12T04:29:37;79.00;;;50.40;;
5351;SDS011;2698;51.454;6.736;2023-09-12T04:32:04;83.03;;;48.30;;
5351;SDS011;2698;51.454;6.736;2023-09-12T04:34:31;79.87;;;47.70;;
5351;SDS011;2698;51.454;6.736;2023-09-12T04:37:01;78.20;;;48.27;;
5351;SDS011;2698;51.454;6.736;2023-09-12T04:39:30;71.07;;;45.80;;
5351;SDS011;2698;51.454;6.736;2023-09-12T04:41:57;69.80;;;43.60;;
5351;SDS011;2698;51.454;6.736;2023-09-12T04:44:25;73.13;;;43.80;;
5351;SDS011;2698;51.454;6.736;2023-09-12T04:46:52;73.37;;;45.07;;
5351;SDS011;2698;51.454;6.736;2023-09-12T04:49:19;74.10;;;46.40;;
5351;SDS011;2698;51.454;6.736;2023-09-12T04:51:46;71.07;;;46.90;;
5351;SDS011;2698;51.454;6.736;2023-09-12T04:54:15;78.40;;;44.60;;
5351;SDS011;2698;51.454;6.736;2023-09-12T04:56:42;67.63;;;43.67;;
5351;SDS011;2698;51.454;6.736;2023-09-12T04:59:09;71.40;;;45.60;;
5351;SDS011;2698;51.454;6.736;2023-09-12T05:01:36;72.33;;;46.43;;
5351;SDS011;2698;51.454;6.736;2023-09-12T05:04:03;65.00;;;43.17;;
5351;SDS011;2698;51.454;6.736;2023-09-12T05:06:30;71.07;;;46.20;;
5351;SDS011;2698;51.454;6.736;2023-09-12T05:08:58;65.37;;;44.43;;
5351;SDS011;2698;51.454;6.736;2023-09-12T05:11:26;77.47;;;47.80;;
5351;SDS011;2698;51.454;6.736;2023-09-12T05:13:53;74.20;;;46.27;;
5351;SDS011;2698;51.454;6.736;2023-09-12T05:16:20;78.53;;;46.27;;
5351;SDS011;2698;51.454;6.736;2023-09-12T05:18:48;69.07;;;45.27;;
5351;SDS011;2698;51.454;6.736;2023-09-12T05:21:16;65.57;;;46.00;;
5351;SDS011;2698;51.454;6.736;2023-09-12T05:23:43;74.47;;;44.67;;
5351;SDS011;2698;51.454;6.736;2023-09-12T05:26:10;73.83;;;44.40;;
5351;SDS011;2698;51.454;6.736;2023-09-12T05:28:38;75.13;;;44.47;;
5351;SDS011;2698;51.454;6.736;2023-09-12T05:31:05;80.53;;;46.87;;
5351;SDS011;2698;51.454;6.736;2023-09-12T05:33:33;74.47;;;43.73;;
5351;SDS011;2698;51.454;6.736;2023-09-12T05:36:00;65.33;;;42.63;;
5351;SDS011;2698;51.454;6.736;2023-09-12T05:38:27;66.67;;;40.53;;
5351;SDS011;2698;51.454;6.736;2023-09-12T05:40:54;60.97;;;42.07;;
5351;SDS011;2698;51.454;6.736;2023-09-12T05:43:22;66.07;;;40.90;;
5351;SDS011;2698;51.454;6.736;2023-09-12T05:45:51;62.33;;;40.27;;
5351;SDS011;2698;51.454;6.736;2023-09-12T05:48:19;57.70;;;39.27;;
5351;SDS011;2698;51.454;6.736;2023-09-12T05:50:46;71.27;;;43.73;;
5351;SDS011;2698;51.454;6.736;2023-09-12T05:53:13;65.70;;;40.30;;
5351;SDS011;2698;51.454;6.736;2023-09-12T05:55:40;83.33;;;46.20;;
5351;SDS011;2698;51.454;6.736;2023-09-12T05:58:07;79.27;;;43.87;;
5351;SDS011;2698;51.454;6.736;2023-09-12T06:00:35;77.67;;;45.77;;
5351;SDS011;2698;51.454;6.736;2023-09-12T06:03:04;78.07;;;45.67;;
5351;SDS011;2698;51.454;6.736;2023-09-12T06:05:31;73.87;;;47.43;;
5351;SDS011;2698;51.454;6.736;2023-09-12T06:07:58;57.53;;;39.20;;
5351;SDS011;2698;51.454;6.736;2023-09-12T06:10:26;56.93;;;36.27;;
5351;SDS011;2698;51.454;6.736;2023-09-12T06:12:53;43.40;;;27.53;;
5351;SDS011;2698;51.454;6.736;2023-09-12T06:15:20;80.23;;;35.70;;
5351;SDS011;2698;51.454;6.736;2023-09-12T06:17:47;110.17;;;37.93;;
5351;SDS011;2698;51.454;6.736;2023-09-12T06:20:16;52.10;;;33.97;;
5351;SDS011;2698;51.454;6.736;2023-09-12T06:22:43;56.40;;;34.67;;
5351;SDS011;2698;51.454;6.736;2023-09-12T06:25:10;75.53;;;39.10;;
5351;SDS011;2698;51.454;6.736;2023-09-12T06:27:37;65.40;;;41.20;;
5351;SDS011;2698;51.454;6.736;2023-09-12T06:30:05;62.83;;;36.80;;
5351;SDS011;2698;51.454;6.736;2023-09-12T06:32:31;63.83;;;35.40;;
5351;SDS011;2698;51.454;6.736;2023-09-12T06:34:59;53.77;;;30.53;;
5351;SDS011;2698;51.454;6.736;2023-09-12T06:37:27;61.00;;;33.20;;
5351;SDS011;2698;51.454;6.736;2023-09-12T06:39:54;52.33;;;35.17;;
5351;SDS011;2698;51.454;6.736;2023-09-12T06:42:21;55.77;;;36.40;;
5351;SDS011;2698;51.454;6.736;2023-09-12T06:44:48;67.73;;;38.40;;
5351;SDS011;2698;51.454;6.736;2023-09-12T06:47:16;65.10;;;37.97;;
5351;SDS011;2698;51.454;6.736;2023-09-12T06:49:43;58.97;;;38.87;;
5351;SDS011;2698;51.454;6.736;2023-09-12T06:52:10;66.87;;;38.33;;
5351;SDS011;2698;51.454;6.736;2023-09-12T06:54:39;63.83;;;38.83;;
5351;SDS011;2698;51.454;6.736;2023-09-12T06:57:06;65.07;;;37.37;;
5351;SDS011;2698;51.454;6.736;2023-09-12T06:59:34;71.17;;;37.70;;
5351;SDS011;2698;51.454;6.736;2023-09-12T07:02:01;64.77;;;36.83;;
5351;SDS011;2698;51.454;6.736;2023-09-12T07:04:29;78.80;;;41.93;;
5351;SDS011;2698;51.454;6.736;2023-09-12T07:06:56;68.27;;;40.60;;
5351;SDS011;2698;51.454;6.736;2023-09-12T07:09:23;67.20;;;41.53;;
5351;SDS011;2698;51.454;6.736;2023-09-12T07:11:52;57.70;;;40.70;;
5351;SDS011;2698;51.454;6.736;2023-09-12T07:14:19;47.97;;;30.63;;
5351;SDS011;2698;51.454;6.736;2023-09-12T07:16:46;45.63;;;26.97;;
5351;SDS011;2698;51.454;6.736;2023-09-12T07:19:14;49.30;;;27.93;;
5351;SDS011;2698;51.454;6.736;2023-09-12T07:21:41;41.37;;;24.30;;
5351;SDS011;2698;51.454;6.736;2023-09-12T07:24:08;41.00;;;24.03;;
5351;SDS011;2698;51.454;6.736;2023-09-12T07:26:35;34.30;;;20.10;;
5351;SDS011;2698;51.454;6.736;2023-09-12T07:29:04;31.73;;;19.27;;
5351;SDS011;2698;51.454;6.736;2023-09-12T07:31:32;29.33;;;19.67;;
5351;SDS011;2698;51.454;6.736;2023-09-12T07:33:59;20.60;;;16.30;;
5351;SDS011;2698;51.454;6.736;2023-09-12T07:36:27;26.73;;;16.97;;
5351;SDS011;2698;51.454;6.736;2023-09-12T07:38:55;26.27;;;15.00;;
5351;SDS011;2698;51.454;6.736;2023-09-12T07:41:22;15.40;;;11.40;;
5351;SDS011;2698;51.454;6.736;2023-09-12T07:43:49;24.00;;;13.20;;
5351;SDS011;2698;51.454;6.736;2023-09-12T07:46:18;15.73;;;12.87;;
5351;SDS011;2698;51.454;6.736;2023-09-12T07:48:45;20.03;;;14.33;;
5351;SDS011;2698;51.454;6.736;2023-09-12T07:51:12;21.73;;;15.27;;
5351;SDS011;2698;51.454;6.736;2023-09-12T07:53:40;35.57;;;18.77;;
5351;SDS011;2698;51.454;6.736;2023-09-12T07:56:08;31.70;;;20.33;;
5351;SDS011;2698;51.454;6.736;2023-09-12T07:58:36;44.60;;;27.60;;
5351;SDS011;2698;51.454;6.736;2023-09-12T08:01:06;44.23;;;28.73;;
5351;SDS011;2698;51.454;6.736;2023-09-12T08:03:35;40.80;;;24.77;;
5351;SDS011;2698;51.454;6.736;2023-09-12T08:06:03;61.97;;;35.27;;
5351;SDS011;2698;51.454;6.736;2023-09-12T08:08:30;74.57;;;35.80;;
5351;SDS011;2698;51.454;6.736;2023-09-12T08:10:57;58.57;;;33.50;;
5351;SDS011;2698;51.454;6.736;2023-09-12T08:13:25;58.03;;;33.33;;
5351;SDS011;2698;51.454;6.736;2023-09-12T08:15:53;47.57;;;35.57;;
5351;SDS011;2698;51.454;6.736;2023-09-12T08:18:20;50.83;;;35.23;;
5351;SDS011;2698;51.454;6.736;2023-09-12T08:20:49;51.27;;;37.97;;
5351;SDS011;2698;51.454;6.736;2023-09-12T08:23:16;54.00;;;39.53;;
5351;SDS011;2698;51.454;6.736;2023-09-12T08:25:43;59.97;;;39.57;;
5351;SDS011;2698;51.454;6.736;2023-09-12T08:28:10;66.40;;;41.80;;
5351;SDS011;2698;51.454;6.736;2023-09-12T08:30:37;95.27;;;46.17;;
5351;SDS011;2698;51.454;6.736;2023-09-12T08:33:04;70.70;;;43.40;;
5351;SDS011;2698;51.454;6.736;2023-09-12T08:35:32;76.03;;;44.00;;
5351;SDS011;2698;51.454;6.736;2023-09-12T08:38:00;45.53;;;35.60;;
5351;SDS011;2698;51.454;6.736;2023-09-12T08:40:27;44.90;;;33.17;;
5351;SDS011;2698;51.454;6.736;2023-09-12T08:42:56;37.40;;;28.70;;
5351;SDS011;2698;51.454;6.736;2023-09-12T08:45:24;30.17;;;25.87;;
5351;SDS011;2698;51.454;6.736;2023-09-12T08:47:52;37.53;;;27.93;;
5351;SDS011;2698;51.454;6.736;2023-09-12T08:50:20;35.23;;;27.47;;
5351;SDS011;2698;51.454;6.736;2023-09-12T08:52:48;35.80;;;25.80;;
5351;SDS011;2698;51.454;6.736;2023-09-12T08:55:17;35.83;;;25.30;;
5351;SDS011;2698;51.454;6.736;2023-09-12T08:57:45;46.67;;;34.27;;
5351;SDS011;2698;51.454;6.736;2023-09-12T09:00:14;53.53;;;36.43;;
5351;SDS011;2698;51.454;6.736;2023-09-12T09:02:42;55.83;;;40.70;;
5351;SDS011;2698;51.454;6.736;2023-09-12T09:05:10;72.17;;;44.47;;
5351;SDS011;2698;51.454;6.736;2023-09-12T09:07:37;62.00;;;45.10;;
5351;SDS011;2698;51.454;6.736;2023-09-12T09:10:05;73.30;;;47.63;;
5351;SDS011;2698;51.454;6.736;2023-09-12T09:12:34;64.07;;;44.77;;
5351;SDS011;2698;51.454;6.736;2023-09-12T09:17:44;48.37;;;34.13;;
5351;SDS011;2698;51.454;6.736;2023-09-12T09:20:12;46.63;;;29.10;;
5351;SDS011;2698;51.454;6.736;2023-09-12T09:22:55;41.70;;;27.50;;
5351;SDS011;2698;51.454;6.736;2023-09-12T09:25:22;33.77;;;23.87;;
5351;SDS011;2698;51.454;6.736;2023-09-12T09:27:51;23.60;;;17.27;;
5351;SDS011;2698;51.454;6.736;2023-09-12T09:30:18;24.70;;;17.50;;
5351;SDS011;2698;51.454;6.736;2023-09-12T09:32:46;25.70;;;16.37;;
5351;SDS011;2698;51.454;6.736;2023-09-12T09:35:13;16.93;;;13.33;;
5351;SDS011;2698;51.454;6.736;2023-09-12T09:37:41;26.63;;;14.10;;
5351;SDS011;2698;51.454;6.736;2023-09-12T09:40:08;38.60;;;26.97;;
5351;SDS011;2698;51.454;6.736;2023-09-12T09:42:36;53.50;;;33.03;;
5351;SDS011;2698;51.454;6.736;2023-09-12T09:45:05;23.60;;;17.87;;
5351;SDS011;2698;51.454;6.736;2023-09-12T09:47:33;24.93;;;14.27;;
5351;SDS011;2698;51.454;6.736;2023-09-12T09:50:00;21.33;;;12.10;;
5351;SDS011;2698;51.454;6.736;2023-09-12T09:52:27;21.87;;;12.20;;
5351;SDS011;2698;51.454;6.736;2023-09-12T09:54:54;22.20;;;12.90;;
5351;SDS011;2698;51.454;6.736;2023-09-12T09:57:21;13.10;;;9.60;;
5351;SDS011;2698;51.454;6.736;2023-09-12T09:59:52;9.83;;;8.57;;
5351;SDS011;2698;51.454;6.736;2023-09-12T10:02:20;11.33;;;6.63;;
5351;SDS011;2698;51.454;6.736;2023-09-12T10:04:49;12.27;;;6.80;;
5351;SDS011;2698;51.454;6.736;2023-09-12T10:07:17;10.20;;;8.40;;
5351;SDS011;2698;51.454;6.736;2023-09-12T10:09:44;12.27;;;8.83;;
5351;SDS011;2698;51.454;6.736;2023-09-12T10:12:11;19.40;;;9.90;;
5351;SDS011;2698;51.454;6.736;2023-09-12T10:14:39;16.57;;;8.87;;
5351;SDS011;2698;51.454;6.736;2023-09-12T10:17:07;13.73;;;8.90;;
5351;SDS011;2698;51.454;6.736;2023-09-12T10:19:37;10.73;;;7.20;;
5351;SDS011;2698;51.454;6.736;2023-09-12T10:22:06;19.90;;;12.27;;
5351;SDS011;2698;51.454;6.736;2023-09-12T10:24:36;19.00;;;10.77;;
5351;SDS011;2698;51.454;6.736;2023-09-12T10:27:04;12.17;;;9.30;;
5351;SDS011;2698;51.454;6.736;2023-09-12T10:29:32;15.83;;;10.03;;
5351;SDS011;2698;51.454;6.736;2023-09-12T10:31:59;12.30;;;10.63;;
5351;SDS011;2698;51.454;6.736;2023-09-12T10:34:26;17.43;;;10.53;;
5351;SDS011;2698;51.454;6.736;2023-09-12T10:36:55;13.03;;;9.33;;
5351;SDS011;2698;51.454;6.736;2023-09-12T10:39:24;14.53;;;9.93;;
5351;SDS011;2698;51.454;6.736;2023-09-12T10:41:53;11.63;;;9.07;;
5351;SDS011;2698;51.454;6.736;2023-09-12T10:44:21;14.87;;;9.23;;
5351;SDS011;2698;51.454;6.736;2023-09-12T10:46:49;14.50;;;11.23;;
5351;SDS011;2698;51.454;6.736;2023-09-12T10:49:17;19.27;;;10.80;;
5351;SDS011;2698;51.454;6.736;2023-09-12T10:51:44;21.40;;;11.30;;
5351;SDS011;2698;51.454;6.736;2023-09-12T10:54:14;15.90;;;11.77;;
5351;SDS011;2698;51.454;6.736;2023-09-12T10:56:41;16.13;;;10.97;;
5351;SDS011;2698;51.454;6.736;2023-09-12T10:59:10;17.47;;;12.03;;
5351;SDS011;2698;51.454;6.736;2023-09-12T11:01:38;18.90;;;14.30;;
5351;SDS011;2698;51.454;6.736;2023-09-12T11:06:53;13.87;;;10.50;;
5351;SDS011;2698;51.454;6.736;2023-09-12T11:09:24;21.87;;;10.27;;
5351;SDS011;2698;51.454;6.736;2023-09-12T11:11:55;20.20;;;10.67;;
5351;SDS011;2698;51.454;6.736;2023-09-12T11:14:22;13.13;;;9.70;;
5351;SDS011;2698;51.454;6.736;2023-09-12T11:19:37;19.03;;;14.27;;
5351;SDS011;2698;51.454;6.736;2023-09-12T11:22:20;28.97;;;13.57;;
5351;SDS011;2698;51.454;6.736;2023-09-12T11:24:49;18.93;;;12.60;;
5351;SDS011;2698;51.454;6.736;2023-09-12T11:27:16;17.43;;;9.27;;
5351;SDS011;2698;51.454;6.736;2023-09-12T11:29:43;16.70;;;10.90;;
5351;SDS011;2698;51.454;6.736;2023-09-12T11:32:10;17.60;;;11.60;;
5351;SDS011;2698;51.454;6.736;2023-09-12T11:34:51;20.13;;;11.27;;
5351;SDS011;2698;51.454;6.736;2023-09-12T11:37:25;23.20;;;13.20;;
5351;SDS011;2698;51.454;6.736;2023-09-12T11:39:55;17.80;;;11.93;;
5351;SDS011;2698;51.454;6.736;2023-09-12T11:42:23;13.60;;;10.70;;
5351;SDS011;2698;51.454;6.736;2023-09-12T11:44:51;11.33;;;10.23;;
5351;SDS011;2698;51.454;6.736;2023-09-12T11:47:19;14.50;;;10.50;;
5351;SDS011;2698;51.454;6.736;2023-09-12T11:49:46;11.10;;;9.90;;
5351;SDS011;2698;51.454;6.736;2023-09-12T11:52:14;21.83;;;11.90;;
5351;SDS011;2698;51.454;6.736;2023-09-12T11:54:42;15.30;;;11.80;;
5351;SDS011;2698;51.454;6.736;2023-09-12T11:57:12;16.10;;;10.90;;
5351;SDS011;2698;51.454;6.736;2023-09-12T11:59:40;17.20;;;13.37;;
5351;SDS011;2698;51.454;6.736;2023-09-12T12:02:09;17.33;;;12.27;;
5351;SDS011;2698;51.454;6.736;2023-09-12T12:04:36;16.10;;;12.47;;
5351;SDS011;2698;51.454;6.736;2023-09-12T12:07:04;18.57;;;12.57;;
5351;SDS011;2698;51.454;6.736;2023-09-12T12:09:31;17.20;;;11.90;;
5351;SDS011;2698;51.454;6.736;2023-09-12T12:12:03;20.10;;;11.90;;
5351;SDS011;2698;51.454;6.736;2023-09-12T12:14:34;26.27;;;14.20;;
5351;SDS011;2698;51.454;6.736;2023-09-12T12:17:07;23.10;;;15.97;;
5351;SDS011;2698;51.454;6.736;2023-09-12T12:19:35;11.83;;;10.60;;
5351;SDS011;2698;51.454;6.736;2023-09-12T12:22:03;19.03;;;11.07;;
5351;SDS011;2698;51.454;6.736;2023-09-12T12:24:38;17.20;;;15.50;;
5351;SDS011;2698;51.454;6.736;2023-09-12T12:27:06;16.60;;;12.40;;
5351;SDS011;2698;51.454;6.736;2023-09-12T12:29:36;16.63;;;11.17;;
5351;SDS011;2698;51.454;6.736;2023-09-12T12:32:04;15.33;;;12.13;;
5351;SDS011;2698;51.454;6.736;2023-09-12T12:34:34;20.10;;;13.43;;
5351;SDS011;2698;51.454;6.736;2023-09-12T12:37:01;19.50;;;13.60;;
5351;SDS011;2698;51.454;6.736;2023-09-12T12:39:28;18.43;;;15.60;;
5351;SDS011;2698;51.454;6.736;2023-09-12T12:41:55;16.37;;;13.47;;
5351;SDS011;2698;51.454;6.736;2023-09-12T12:44:23;17.73;;;14.10;;
5351;SDS011;2698;51.454;6.736;2023-09-12T12:47:03;18.80;;;15.60;;
5351;SDS011;2698;51.454;6.736;2023-09-12T12:49:35;16.17;;;13.47;;
5351;SDS011;2698;51.454;6.736;2023-09-12T12:52:02;16.90;;;14.53;;
5351;SDS011;2698;51.454;6.736;2023-09-12T12:54:31;16.53;;;13.03;;
5351;SDS011;2698;51.454;6.736;2023-09-12T12:56:58;17.00;;;13.63;;
5351;SDS011;2698;51.454;6.736;2023-09-12T12:59:25;18.50;;;15.23;;
5351;SDS011;2698;51.454;6.736;2023-09-12T13:01:52;17.30;;;13.40;;
5351;SDS011;2698;51.454;6.736;2023-09-12T13:04:21;20.60;;;14.07;;
5351;SDS011;2698;51.454;6.736;2023-09-12T13:06:48;22.00;;;14.80;;
5351;SDS011;2698;51.454;6.736;2023-09-12T13:09:15;16.73;;;13.10;;
5351;SDS011;2698;51.454;6.736;2023-09-12T13:11:42;22.20;;;13.60;;
5351;SDS011;2698;51.454;6.736;2023-09-12T13:14:10;19.90;;;13.50;;
5351;SDS011;2698;51.454;6.736;2023-09-12T13:16:37;19.80;;;15.23;;
5351;SDS011;2698;51.454;6.736;2023-09-12T13:19:06;33.93;;;23.90;;
5351;SDS011;2698;51.454;6.736;2023-09-12T13:21:35;24.57;;;21.33;;
5351;SDS011;2698;51.454;6.736;2023-09-12T13:24:02;26.03;;;23.40;;
5351;SDS011;2698;51.454;6.736;2023-09-12T13:26:30;26.47;;;23.63;;
5351;SDS011;2698;51.454;6.736;2023-09-12T13:28:57;28.33;;;25.10;;
5351;SDS011;2698;51.454;6.736;2023-09-12T13:31:24;26.70;;;21.23;;
5351;SDS011;2698;51.454;6.736;2023-09-12T13:33:51;19.17;;;16.23;;
5351;SDS011;2698;51.454;6.736;2023-09-12T13:36:18;22.20;;;15.33;;
5351;SDS011;2698;51.454;6.736;2023-09-12T13:38:47;16.00;;;14.40;;
5351;SDS011;2698;51.454;6.736;2023-09-12T13:41:16;16.50;;;14.20;;
5351;SDS011;2698;51.454;6.736;2023-09-12T13:43:43;15.43;;;13.47;;
5351;SDS011;2698;51.454;6.736;2023-09-12T13:46:10;17.97;;;13.43;;
5351;SDS011;2698;51.454;6.736;2023-09-12T13:48:37;17.40;;;14.20;;
5351;SDS011;2698;51.454;6.736;2023-09-12T13:51:05;15.20;;;13.60;;
5351;SDS011;2698;51.454;6.736;2023-09-12T13:53:32;21.03;;;14.37;;
5351;SDS011;2698;51.454;6.736;2023-09-12T13:56:00;16.93;;;14.30;;
5351;SDS011;2698;51.454;6.736;2023-09-12T13:58:27;15.60;;;12.00;;
5351;SDS011;2698;51.454;6.736;2023-09-12T14:00:55;14.60;;;12.17;;
5351;SDS011;2698;51.454;6.736;2023-09-12T14:03:22;17.73;;;12.80;;
5351;SDS011;2698;51.454;6.736;2023-09-12T14:05:49;14.03;;;12.47;;
5351;SDS011;2698;51.454;6.736;2023-09-12T14:08:17;19.97;;;11.13;;
5351;SDS011;2698;51.454;6.736;2023-09-12T14:10:44;13.50;;;12.10;;
5351;SDS011;2698;51.454;6.736;2023-09-12T14:13:12;13.13;;;10.20;;
5351;SDS011;2698;51.454;6.736;2023-09-12T14:15:40;11.30;;;9.40;;
5351;SDS011;2698;51.454;6.736;2023-09-12T14:18:07;15.70;;;10.87;;
5351;SDS011;2698;51.454;6.736;2023-09-12T14:20:34;15.33;;;10.97;;
5351;SDS011;2698;51.454;6.736;2023-09-12T14:23:01;9.53;;;8.60;;
5351;SDS011;2698;51.454;6.736;2023-09-12T14:25:29;16.03;;;8.83;;
5351;SDS011;2698;51.454;6.736;2023-09-12T14:27:56;9.20;;;8.40;;
5351;SDS011;2698;51.454;6.736;2023-09-12T14:30:24;8.47;;;7.47;;
5351;SDS011;2698;51.454;6.736;2023-09-12T14:32:59;10.00;;;7.57;;
5351;SDS011;2698;51.454;6.736;2023-09-12T14:35:26;10.53;;;7.53;;
5351;SDS011;2698;51.454;6.736;2023-09-12T14:37:53;7.40;;;6.80;;
5351;SDS011;2698;51.454;6.736;2023-09-12T14:40:20;14.00;;;6.60;;
5351;SDS011;2698;51.454;6.736;2023-09-12T14:42:48;8.43;;;6.30;;
5351;SDS011;2698;51.454;6.736;2023-09-12T14:45:16;9.20;;;6.17;;
5351;SDS011;2698;51.454;6.736;2023-09-12T14:47:46;10.07;;;6.93;;
5351;SDS011;2698;51.454;6.736;2023-09-12T14:50:14;7.33;;;6.40;;
5351;SDS011;2698;51.454;6.736;2023-09-12T14:52:42;9.83;;;6.93;;
5351;SDS011;2698;51.454;6.736;2023-09-12T14:55:09;9.37;;;6.90;;
5351;SDS011;2698;51.454;6.736;2023-09-12T14:57:36;10.50;;;6.33;;
5351;SDS011;2698;51.454;6.736;2023-09-12T15:00:04;9.60;;;6.23;;
5351;SDS011;2698;51.454;6.736;2023-09-12T15:02:31;9.27;;;6.37;;
5351;SDS011;2698;51.454;6.736;2023-09-12T15:05:00;7.27;;;6.57;;